Time;durP1;ratioP1;P1;durP2;ratioP2;P2;SDS_P1;SDS_P2;PMS_P1;PMS_P2;Temp;Humidity;BMP_temperature;BMP_pressure;BME280_temperature;BME280_humidity;BME280_pressure;Samples;Min_cycle;Max_cycle;Signal;HPM_P1;HPM_P2
2021/06/11 00:01:58;;;;;;;7.10;4.53;;;;;;;16.01;53.66;101486.50;5092492;28;20028;-69
2021/06/11 00:04:23;;;;;;;8.40;4.43;;;;;;;15.95;53.86;101486.25;5091007;28;20469;-69
2021/06/11 00:06:49;;;;;;;8.05;4.63;;;;;;;15.89;54.26;101487.75;5091165;28;20024;-69
2021/06/11 00:09:14;;;;;;;12.30;5.47;;;;;;;15.88;54.44;101485.13;5087743;28;20036;-69
2021/06/11 00:11:44;;;;;;;5.93;4.57;;;;;;;15.85;54.72;101484.97;5072151;28;20470;-69
2021/06/11 00:14:10;;;;;;;;;;;;;;;15.83;54.94;101486.59;5071307;28;20024;-69
2021/06/11 00:16:36;;;;;;;9.13;4.53;;;;;;;15.80;54.90;101481.28;5070921;28;19908;-69
2021/06/11 00:19:01;;;;;;;7.20;4.43;;;;;;;15.72;55.10;101487.06;5073250;28;20119;-69
2021/06/11 00:21:27;;;;;;;6.30;4.55;;;;;;;15.68;55.49;101477.34;5092177;28;20028;-69
2021/06/11 00:23:53;;;;;;;6.38;3.95;;;;;;;15.62;55.98;101482.31;5093100;28;20028;-69
2021/06/11 00:26:19;;;;;;;5.40;3.85;;;;;;;15.62;55.78;101477.09;5075462;28;20121;-69
2021/06/11 00:28:45;;;;;;;6.22;4.00;;;;;;;15.62;55.73;101483.16;5075382;28;20027;-69
2021/06/11 00:31:10;;;;;;;7.82;4.40;;;;;;;15.52;56.10;101481.00;5092829;28;20024;-68
2021/06/11 00:33:36;;;;;;;6.22;4.05;;;;;;;15.48;56.38;101481.69;5092015;28;20112;-69
2021/06/11 00:36:01;;;;;;;6.53;4.78;;;;;;;15.46;56.63;101481.66;5075394;28;20044;-69
2021/06/11 00:38:26;;;;;;;5.25;3.83;;;;;;;15.42;57.06;101484.94;5075275;28;20116;-69
2021/06/11 00:40:52;;;;;;;7.93;4.65;;;;;;;15.36;57.35;101474.25;5089915;28;20059;-69
2021/06/11 00:43:17;;;;;;;9.90;5.00;;;;;;;15.42;57.50;101473.66;5075817;28;20117;-69
2021/06/11 00:45:44;;;;;;;8.73;4.70;;;;;;;15.33;57.86;101463.75;5075165;28;20043;-69
2021/06/11 00:48:10;;;;;;;8.30;4.20;;;;;;;15.29;57.21;101461.84;5075147;28;20213;-69
2021/06/11 00:50:37;;;;;;;6.65;4.28;;;;;;;15.26;57.43;101464.31;5088916;28;20048;-68
2021/06/11 00:53:04;;;;;;;7.65;4.32;;;;;;;15.17;57.74;101460.50;5077230;28;20103;-69
2021/06/11 00:55:30;;;;;;;7.97;5.32;;;;;;;15.24;57.79;101458.16;5094135;28;20468;-69
2021/06/11 00:57:56;;;;;;;7.38;5.32;;;;;;;15.23;58.18;101441.72;5095100;28;20140;-69
2021/06/11 01:00:21;;;;;;;9.90;4.90;;;;;;;15.18;58.00;101443.25;5082869;28;20132;-68
2021/06/11 01:02:47;;;;;;;7.13;5.28;;;;;;;15.16;57.96;101450.94;5073849;28;20151;-68
2021/06/11 01:05:13;;;;;;;9.63;4.80;;;;;;;15.10;58.13;101455.88;5073685;28;20047;-68
2021/06/11 01:07:41;;;;;;;10.27;4.93;;;;;;;15.11;58.39;101451.56;5074733;28;20090;-68
2021/06/11 01:10:08;;;;;;;10.50;4.68;;;;;;;15.06;58.90;101453.97;5082402;28;20032;-69
2021/06/11 01:12:34;;;;;;;6.97;4.43;;;;;;;15.10;58.71;101448.09;5093757;28;20082;-68
2021/06/11 01:15:01;;;;;;;8.95;5.25;;;;;;;15.04;58.86;101456.50;5093914;28;20028;-68
2021/06/11 01:17:26;;;;;;;8.32;5.13;;;;;;;15.01;59.15;101450.28;5093629;28;20030;-69
2021/06/11 01:19:52;;;;;;;7.47;4.75;;;;;;;14.98;59.41;101450.13;5085796;28;20036;-69
2021/06/11 01:22:32;;;;;;;7.28;5.20;;;;;;;14.96;59.49;101452.69;5073367;28;20059;-68
2021/06/11 01:24:57;;;;;;;;;;;;;;;15.01;59.55;101452.88;5092737;28;20028;-69
2021/06/11 01:27:23;;;;;;;9.98;4.95;;;;;;;15.01;59.62;101460.66;5093371;28;20269;-68
2021/06/11 01:29:52;;;;;;;8.50;5.65;;;;;;;14.98;59.62;101455.31;5087670;28;20025;-69
2021/06/11 01:32:19;;;;;;;7.10;5.05;;;;;;;14.95;60.23;101460.38;5073193;28;20036;-69
2021/06/11 01:34:47;;;;;;;7.50;5.10;;;;;;;14.94;60.38;101461.19;5072931;28;20090;-69
2021/06/11 01:37:17;;;;;;;8.77;5.40;;;;;;;15.00;60.41;101464.06;5072480;28;20031;-69
2021/06/11 01:39:50;;;;;;;8.52;5.47;;;;;;;15.02;60.57;101459.84;5073923;28;20433;-68
2021/06/11 01:42:16;;;;;;;10.15;5.15;;;;;;;15.03;60.19;101449.53;5087284;28;20024;-68
2021/06/11 01:44:44;;;;;;;8.70;5.97;;;;;;;15.04;60.33;101456.50;5072877;28;20074;-68
2021/06/11 01:47:12;;;;;;;8.88;6.00;;;;;;;15.07;60.10;101450.53;5073941;28;20042;-69
2021/06/11 01:49:39;;;;;;;7.55;5.43;;;;;;;15.11;59.87;101452.44;5055998;28;20024;-69
2021/06/11 01:52:06;;;;;;;11.82;6.78;;;;;;;15.01;59.97;101455.47;5072564;28;20478;-69
2021/06/11 01:54:32;;;;;;;11.43;6.18;;;;;;;14.97;60.38;101458.75;5072748;28;20039;-69
2021/06/11 01:56:57;;;;;;;10.30;6.07;;;;;;;15.00;60.24;101464.06;5078340;28;20028;-69
2021/06/11 01:59:24;;;;;;;9.48;7.03;;;;;;;14.94;60.29;101458.59;5072115;28;20501;-69
2021/06/11 02:01:49;;;;;;;9.73;6.72;;;;;;;14.92;60.39;101455.06;5077712;28;20041;-69
2021/06/11 02:04:15;;;;;;;10.00;7.00;;;;;;;14.88;60.61;101462.72;5072374;28;20020;-71
2021/06/11 02:06:42;;;;;;;11.98;6.90;;;;;;;14.88;60.38;101454.94;5055872;28;20496;-70
2021/06/11 02:09:08;;;;;;;10.85;7.10;;;;;;;14.89;60.46;101461.88;5092095;28;20027;-71
2021/06/11 02:11:36;;;;;;;10.93;7.10;;;;;;;14.83;60.37;101455.53;5075604;28;20020;-71
2021/06/11 02:14:03;;;;;;;11.85;7.35;;;;;;;14.85;60.29;101454.78;5075558;28;20028;-70
2021/06/11 02:16:30;;;;;;;12.25;6.82;;;;;;;14.79;60.31;101462.28;5092850;28;20024;-70
2021/06/11 02:18:59;;;;;;;9.55;7.10;;;;;;;14.73;60.47;101451.66;5090712;28;20031;-70
2021/06/11 02:21:25;;;;;;;12.60;8.43;;;;;;;14.66;60.30;101462.53;5092420;28;20019;-71
2021/06/11 02:23:50;;;;;;;13.43;7.85;;;;;;;14.65;60.43;101456.44;5092381;28;20036;-71
2021/06/11 02:26:17;;;;;;;12.45;8.30;;;;;;;14.64;60.55;101464.16;5082410;28;20086;-71
2021/06/11 02:28:42;;;;;;;14.00;7.90;;;;;;;14.57;60.85;101463.88;5055157;28;20461;-70
2021/06/11 02:31:08;;;;;;;12.27;8.43;;;;;;;14.58;60.78;101468.25;5071745;28;20056;-70
2021/06/11 02:33:34;;;;;;;12.38;7.82;;;;;;;14.59;60.90;101462.25;5071990;28;20059;-71
2021/06/11 02:35:59;;;;;;;17.20;9.23;;;;;;;14.60;60.79;101469.22;5080179;28;20153;-71
2021/06/11 02:38:25;;;;;;;14.02;9.32;;;;;;;14.53;61.10;101461.06;5091406;28;20116;-71
2021/06/11 02:40:51;;;;;;;14.55;9.30;;;;;;;14.55;61.39;101462.94;5079514;28;20116;-71
2021/06/11 02:43:18;;;;;;;14.73;10.05;;;;;;;14.52;61.55;101449.81;5076846;28;20040;-71
2021/06/11 02:45:58;;;;;;;17.05;10.38;;;;;;;14.54;61.76;101452.47;5072278;28;20366;-71
2021/06/11 02:48:38;;;;;;;17.02;10.02;;;;;;;14.56;61.81;101451.75;5068652;28;20020;-71
2021/06/11 02:51:28;;;;;;;16.52;10.52;;;;;;;14.51;62.05;101458.41;5082303;28;20024;-71
2021/06/11 02:53:54;;;;;;;12.23;9.70;;;;;;;14.57;61.95;101456.09;5081691;28;20016;-71
2021/06/11 02:56:26;;;;;;;17.65;11.02;;;;;;;14.58;61.85;101465.66;5084143;28;20020;-71
2021/06/11 02:58:58;;;;;;;16.48;10.27;;;;;;;14.51;62.25;101462.69;5071170;28;20044;-71
2021/06/11 03:01:24;;;;;;;17.23;10.57;;;;;;;14.51;62.41;101463.59;5071842;28;20116;-71
2021/06/11 03:03:51;;;;;;;17.75;10.45;;;;;;;14.45;62.74;101458.13;5072624;28;20048;-71
2021/06/11 03:06:18;;;;;;;15.70;11.02;;;;;;;14.44;62.98;101467.59;5074992;28;20031;-70
2021/06/11 03:08:44;;;;;;;17.45;11.07;;;;;;;14.49;62.87;101465.25;5091766;28;20484;-69
2021/06/11 03:11:13;;;;;;;15.80;11.05;;;;;;;14.52;62.88;101465.38;5086900;28;20020;-69
2021/06/11 03:13:41;;;;;;;15.27;10.13;;;;;;;14.58;62.65;101465.66;5087057;28;20476;-70
2021/06/11 03:16:07;;;;;;;14.30;10.13;;;;;;;14.61;62.62;101465.81;5074477;28;20481;-70
2021/06/11 03:18:50;;;;;;;15.63;10.82;;;;;;;14.66;63.09;101462.53;5080659;28;20039;-70
2021/06/11 03:21:21;;;;;;;16.08;10.23;;;;;;;14.70;62.78;101449.78;5080643;28;20056;-70
2021/06/11 03:24:12;;;;;;;17.40;10.98;;;;;;;14.72;62.80;101463.72;5081171;28;20021;-70
2021/06/11 03:26:46;;;;;;;17.63;11.70;;;;;;;14.80;62.65;101456.28;5076514;28;20040;-70
2021/06/11 03:29:14;;;;;;;18.15;12.43;;;;;;;14.80;62.79;101448.50;5080409;28;20024;-70
2021/06/11 03:31:46;;;;;;;18.45;12.15;;;;;;;14.84;62.78;101450.41;5081411;28;20035;-70
2021/06/11 03:34:18;;;;;;;19.05;11.65;;;;;;;14.76;62.71;101449.19;5081357;28;20032;-70
2021/06/11 03:36:45;;;;;;;15.55;10.52;;;;;;;14.84;63.08;101447.81;5079528;28;20081;-69
2021/06/11 03:39:23;;;;;;;16.30;11.20;;;;;;;14.84;63.24;101453.00;5070552;28;20111;-70
2021/06/11 03:41:50;;;;;;;19.58;11.85;;;;;;;14.87;63.14;101447.97;5082440;28;20035;-69
2021/06/11 03:44:16;;;;;;;18.05;11.05;;;;;;;14.88;63.21;101454.94;5080506;28;20082;-70
2021/06/11 03:46:42;;;;;;;16.50;11.02;;;;;;;14.88;63.01;101449.75;5083009;28;20039;-69
2021/06/11 03:49:09;;;;;;;15.65;11.30;;;;;;;14.95;63.15;101452.59;5081112;28;20036;-70
2021/06/11 03:51:36;;;;;;;20.35;11.93;;;;;;;14.96;62.93;101457.88;5080512;28;20019;-70
2021/06/11 03:54:07;;;;;;;17.48;11.30;;;;;;;15.05;62.72;101447.00;5081754;28;20023;-70
2021/06/11 03:56:35;;;;;;;20.83;12.18;;;;;;;15.13;62.77;101450.81;5079933;28;20073;-70
2021/06/11 03:59:02;;;;;;;18.88;12.57;;;;;;;15.22;62.70;101449.44;5081802;28;20132;-70
2021/06/11 04:01:29;;;;;;;22.50;13.52;;;;;;;15.26;62.91;101453.94;5086842;28;20039;-70
2021/06/11 04:03:55;;;;;;;19.52;13.02;;;;;;;15.30;63.07;101453.25;5085046;28;20021;-69
2021/06/11 04:06:25;;;;;;;22.65;12.57;;;;;;;15.40;63.11;101455.44;5069726;28;20047;-70
2021/06/11 04:08:56;;;;;;;17.75;12.70;;;;;;;15.44;63.11;101443.47;5083793;28;20020;-70
2021/06/11 04:11:25;;;;;;;23.70;14.35;;;;;;;15.51;63.31;101447.22;5084278;28;20036;-69
2021/06/11 04:13:55;;;;;;;19.05;14.20;;;;;;;15.52;63.39;101448.97;5082764;28;20034;-70
2021/06/11 04:16:27;;;;;;;22.65;14.95;;;;;;;15.63;63.49;101463.31;5083382;28;20053;-69
2021/06/11 04:18:55;;;;;;;24.17;13.90;;;;;;;15.71;63.13;101461.91;5083050;28;20020;-70
2021/06/11 04:21:24;;;;;;;24.77;15.45;;;;;;;15.75;63.37;101461.19;5084258;28;20101;-70
2021/06/11 04:23:52;;;;;;;24.85;16.80;;;;;;;15.80;63.43;101461.38;5083471;28;20047;-70
2021/06/11 04:26:21;;;;;;;28.30;16.55;;;;;;;15.87;63.74;101458.22;5084521;28;20028;-69
2021/06/11 04:28:47;;;;;;;27.30;16.25;;;;;;;15.88;63.78;101456.53;5084049;28;20047;-70
2021/06/11 04:31:12;;;;;;;26.55;17.65;;;;;;;15.94;64.05;101454.19;5084418;28;20117;-70
2021/06/11 04:33:37;;;;;;;22.48;16.00;;;;;;;16.05;63.84;101452.91;5085674;28;20049;-70
2021/06/11 04:36:03;;;;;;;25.25;18.00;;;;;;;16.09;63.50;101456.53;5083019;28;20024;-70
2021/06/11 04:38:40;;;;;;;40.47;18.95;;;;;;;16.17;63.70;101456.81;5085067;28;20095;-70
2021/06/11 04:41:06;;;;;;;30.55;17.75;;;;;;;16.28;63.71;101458.09;5081483;28;20036;-70
2021/06/11 04:43:31;;;;;;;32.15;18.80;;;;;;;16.34;63.57;101460.06;5083365;28;20093;-69
2021/06/11 04:45:57;;;;;;;26.83;18.70;;;;;;;16.35;63.71;101462.72;5083917;28;20055;-69
2021/06/11 04:48:22;;;;;;;31.55;19.98;;;;;;;16.47;63.97;101462.31;5084299;28;20017;-70
2021/06/11 04:50:48;;;;;;;30.15;20.15;;;;;;;16.53;64.23;101456.47;5084211;28;20457;-70
2021/06/11 04:53:13;;;;;;;32.47;21.02;;;;;;;16.70;63.83;101453.63;5084407;28;20020;-70
2021/06/11 04:55:39;;;;;;;35.33;19.60;;;;;;;16.74;63.63;101456.38;5084854;28;20024;-68
2021/06/11 04:58:04;;;;;;;30.98;20.80;;;;;;;16.76;63.50;101448.63;5078349;28;20031;-70
2021/06/11 05:00:30;;;;;;;33.03;19.77;;;;;;;16.87;63.29;101449.00;5090550;28;20048;-70
2021/06/11 05:02:56;;;;;;;29.42;19.25;;;;;;;17.01;63.33;101454.75;5091015;28;20061;-70
2021/06/11 05:05:21;;;;;;;30.85;19.83;;;;;;;17.04;63.31;101449.66;5069301;28;20036;-70
2021/06/11 05:07:46;;;;;;;30.13;19.90;;;;;;;17.04;63.56;101460.06;5085846;28;20264;-70
2021/06/11 05:10:12;;;;;;;27.15;19.30;;;;;;;17.17;63.09;101449.25;5087083;28;20101;-70
2021/06/11 05:12:38;;;;;;;32.50;21.00;;;;;;;17.28;62.72;101448.75;5088135;28;20055;-71
2021/06/11 05:15:04;;;;;;;29.20;19.85;;;;;;;17.48;62.06;101445.09;5080870;28;20056;-71
2021/06/11 05:17:30;;;;;;;28.42;19.48;;;;;;;17.57;62.27;101451.47;5081274;28;20474;-71
2021/06/11 05:19:55;;;;;;;30.88;20.38;;;;;;;17.72;61.55;101446.75;5081836;28;20159;-71
2021/06/11 05:22:21;;;;;;;27.90;19.02;;;;;;;17.91;61.22;101436.94;5083887;28;20397;-71
2021/06/11 05:24:47;;;;;;;27.15;18.38;;;;;;;18.01;60.30;101439.03;5083664;28;20024;-71
2021/06/11 05:27:13;;;;;;;30.77;18.20;;;;;;;18.03;60.53;101447.78;5081017;28;20363;-70
2021/06/11 05:29:38;;;;;;;27.80;17.95;;;;;;;18.13;61.06;101448.06;5080585;28;20028;-70
2021/06/11 05:32:04;;;;;;;32.83;18.70;;;;;;;18.04;60.48;101449.53;5051457;28;20032;-71
2021/06/11 05:34:30;;;;;;;26.60;17.70;;;;;;;18.07;60.32;101452.25;5088416;28;20032;-70
2021/06/11 05:36:55;;;;;;;28.58;17.15;;;;;;;18.09;61.16;101442.75;5092619;28;20032;-70
2021/06/11 05:39:21;;;;;;;26.98;17.63;;;;;;;18.13;60.54;101446.34;5092046;28;20063;-70
2021/06/11 05:41:46;;;;;;;28.48;17.77;;;;;;;18.30;60.25;101444.22;5093461;28;20062;-71
2021/06/11 05:44:12;;;;;;;27.92;16.60;;;;;;;18.49;59.82;101450.00;5093835;28;20064;-70
2021/06/11 05:46:38;;;;;;;25.10;16.77;;;;;;;18.57;59.89;101440.69;5090277;28;20024;-70
2021/06/11 05:49:04;;;;;;;26.10;15.63;;;;;;;18.73;59.28;101441.13;5093066;28;20028;-70
2021/06/11 05:51:30;;;;;;;27.67;15.90;;;;;;;18.64;58.98;101441.75;5092142;28;20034;-69
2021/06/11 05:53:56;;;;;;;27.48;15.10;;;;;;;18.50;58.91;101439.63;5091850;28;20099;-70
2021/06/11 05:56:22;;;;;;;24.92;14.48;;;;;;;18.73;58.68;101446.34;5091858;28;20445;-70
2021/06/11 05:58:47;;;;;;;23.17;14.85;;;;;;;19.08;56.82;101438.63;5092533;28;20545;-70
2021/06/11 06:01:13;;;;;;;23.00;14.80;;;;;;;19.14;56.08;101438.81;5092973;28;20024;-70
2021/06/11 06:03:39;;;;;;;19.35;13.00;;;;;;;19.29;55.94;101433.09;5092372;28;20028;-70
2021/06/11 06:06:05;;;;;;;20.30;12.95;;;;;;;18.97;57.09;101436.63;5087605;28;20020;-70
2021/06/11 06:08:30;;;;;;;18.55;11.57;;;;;;;19.32;54.74;101442.72;5082081;28;20028;-70
2021/06/11 06:10:56;;;;;;;18.00;11.80;;;;;;;19.45;54.48;101434.38;5082060;28;20024;-70
2021/06/11 06:13:21;;;;;;;16.42;10.23;;;;;;;19.37;55.24;101436.78;5082525;28;20024;-70
2021/06/11 06:15:47;;;;;;;14.32;10.25;;;;;;;19.56;54.49;101427.66;5082125;28;20409;-69
2021/06/11 06:18:13;;;;;;;17.98;11.80;;;;;;;19.78;53.62;101432.53;5083903;28;20027;-72
2021/06/11 06:20:39;;;;;;;15.45;9.27;;;;;;;19.93;52.67;101425.09;5062977;28;20756;-74
2021/06/11 06:23:04;;;;;;;13.43;8.50;;;;;;;19.91;52.30;101428.53;5082967;28;20020;-73
2021/06/11 06:25:30;;;;;;;12.32;8.13;;;;;;;19.88;52.37;101423.22;5080608;28;20020;-74
2021/06/11 06:27:55;;;;;;;13.80;9.18;;;;;;;19.80;52.00;101416.06;5081895;28;20033;-73
2021/06/11 06:30:23;;;;;;;11.07;8.13;;;;;;;19.79;51.20;101414.31;5066381;28;20031;-72
2021/06/11 06:32:49;;;;;;;13.23;8.10;;;;;;;19.89;51.46;101420.59;5080270;28;20017;-72
2021/06/11 06:35:16;;;;;;;10.43;7.57;;;;;;;20.11;50.27;101411.56;5083159;28;20070;-71
2021/06/11 06:37:42;;;;;;;10.35;6.57;;;;;;;20.27;52.27;101424.97;5081754;28;20058;-71
2021/06/11 06:40:08;;;;;;;9.68;7.22;;;;;;;20.60;51.21;101431.75;5081909;28;20051;-70
2021/06/11 06:42:34;;;;;;;11.18;8.38;;;;;;;20.50;49.40;101424.56;5080595;28;20103;-73
2021/06/11 06:45:00;;;;;;;10.93;7.57;;;;;;;20.42;51.27;101422.69;5082776;28;20020;-74
2021/06/11 06:47:26;;;;;;;12.18;8.57;;;;;;;20.65;50.78;101429.25;5083367;28;20032;-71
2021/06/11 06:49:51;;;;;;;11.25;7.72;;;;;;;20.92;49.58;101422.81;5081196;28;20078;-71
2021/06/11 06:52:17;;;;;;;14.88;8.77;;;;;;;20.68;52.54;101424.97;5081309;28;20031;-73
2021/06/11 06:54:43;;;;;;;14.30;8.43;;;;;;;20.94;50.24;101427.22;5081688;28;20028;-69
2021/06/11 06:57:10;;;;;;;14.77;7.70;;;;;;;21.14;50.02;101429.34;5088797;28;20069;-71
2021/06/11 06:59:35;;;;;;;9.05;6.68;;;;;;;21.06;48.78;101420.47;5091051;28;20044;-70
2021/06/11 07:02:01;;;;;;;10.57;7.15;;;;;;;21.24;48.59;101426.03;5091305;28;20039;-70
2021/06/11 07:04:27;;;;;;;14.63;7.68;;;;;;;21.21;48.43;101418.09;5091902;28;20358;-70
2021/06/11 07:06:53;;;;;;;10.00;6.10;;;;;;;21.44;48.91;101422.84;5092897;28;20028;-70
2021/06/11 07:09:19;;;;;;;8.43;5.60;;;;;;;21.47;48.18;101422.91;5091353;28;20465;-70
2021/06/11 07:11:48;;;;;;;8.88;5.88;;;;;;;21.76;47.60;101414.69;5092639;28;20051;-70
2021/06/11 07:14:15;;;;;;;7.32;5.40;;;;;;;21.63;46.50;101423.16;5086610;28;20020;-70
2021/06/11 07:16:41;;;;;;;12.73;5.97;;;;;;;21.64;45.51;101424.94;5071350;28;20497;-69
2021/06/11 07:19:07;;;;;;;8.00;5.72;;;;;;;21.80;46.54;101426.97;5054434;28;20032;-70
2021/06/11 07:21:32;;;;;;;10.80;5.78;;;;;;;22.03;46.33;101431.66;5090800;28;20373;-69
2021/06/11 07:23:57;;;;;;;6.80;5.40;;;;;;;22.22;46.04;101429.31;5090030;28;20105;-70
2021/06/11 07:26:23;;;;;;;9.10;5.03;;;;;;;22.53;45.43;101428.00;5092321;28;20031;-69
2021/06/11 07:28:48;;;;;;;6.63;4.40;;;;;;;22.62;44.56;101424.56;5070417;28;20070;-69
2021/06/11 07:31:14;;;;;;;10.75;4.22;;;;;;;22.79;45.05;101427.41;5083954;28;20031;-70
2021/06/11 07:33:40;;;;;;;8.15;4.60;;;;;;;22.76;44.70;101422.97;5075174;28;20152;-70
2021/06/11 07:36:05;;;;;;;8.65;5.38;;;;;;;22.95;44.14;101412.69;5082333;28;20028;-71
2021/06/11 07:38:31;;;;;;;8.65;4.35;;;;;;;23.17;43.44;101428.66;5088386;28;20029;-70
2021/06/11 07:40:57;;;;;;;10.73;5.55;;;;;;;23.27;41.96;101427.91;5094322;28;20115;-70
2021/06/11 07:43:23;;;;;;;9.30;4.20;;;;;;;23.39;42.45;101423.63;5094886;28;20118;-71
2021/06/11 07:45:50;;;;;;;5.18;3.65;;;;;;;23.53;42.34;101427.25;5094499;28;20104;-69
2021/06/11 07:48:16;;;;;;;7.53;3.78;;;;;;;23.45;41.28;101423.69;5092864;28;20072;-70
2021/06/11 07:50:42;;;;;;;6.05;3.50;;;;;;;23.38;42.13;101421.88;5093785;28;20659;-70
2021/06/11 07:53:08;;;;;;;8.65;3.53;;;;;;;23.31;42.08;101434.97;5095596;28;20071;-68
2021/06/11 07:55:34;;;;;;;7.78;3.35;;;;;;;23.48;42.58;101423.72;5095883;28;20073;-68
2021/06/11 07:58:00;;;;;;;5.38;2.65;;;;;;;23.68;41.54;101425.59;5095800;28;20028;-68
2021/06/11 08:00:26;;;;;;;5.20;3.22;;;;;;;24.02;41.30;101425.88;5095364;28;20056;-68
2021/06/11 08:02:59;;;;;;;5.40;2.85;;;;;;;24.21;41.04;101430.38;5095690;28;20040;-68
2021/06/11 08:05:26;;;;;;;9.07;3.65;;;;;;;24.04;40.33;101421.50;5094982;28;20039;-68
2021/06/11 08:07:52;;;;;;;6.75;3.17;;;;;;;24.18;40.22;101432.97;5094784;28;20491;-71
2021/06/11 08:10:18;;;;;;;5.93;2.78;;;;;;;24.23;40.68;101426.88;5094807;28;20035;-68
2021/06/11 08:12:44;;;;;;;7.75;2.88;;;;;;;24.53;42.33;101428.75;5095830;28;20103;-68
2021/06/11 08:15:10;;;;;;;4.43;3.40;;;;;;;24.41;39.01;101434.84;5095780;28;20062;-68
2021/06/11 08:17:35;;;;;;;6.95;2.85;;;;;;;24.58;39.76;101426.13;5095817;28;20024;-68
2021/06/11 08:20:01;;;;;;;8.00;3.20;;;;;;;24.93;39.42;101422.75;5095708;28;20054;-68
2021/06/11 08:22:27;;;;;;;5.10;2.50;;;;;;;25.06;39.70;101424.53;5094553;28;20032;-68
2021/06/11 08:24:52;;;;;;;3.70;2.50;;;;;;;25.24;38.06;101414.88;5094201;28;20038;-68
2021/06/11 08:27:18;;;;;;;4.63;2.45;;;;;;;25.36;38.37;101412.25;5094206;28;20058;-68
2021/06/11 08:29:43;;;;;;;3.47;1.92;;;;;;;25.55;38.74;101422.81;5095406;28;20089;-68
2021/06/11 08:32:09;;;;;;;6.55;2.60;;;;;;;25.69;36.70;101414.00;5095279;28;20035;-68
2021/06/11 08:34:36;;;;;;;4.95;2.15;;;;;;;25.95;36.59;101422.72;5095524;28;20032;-68
2021/06/11 08:37:06;;;;;;;4.13;2.45;;;;;;;26.00;36.36;101419.22;5094066;28;20111;-68
2021/06/11 08:39:33;;;;;;;4.93;2.17;;;;;;;25.95;36.04;101417.47;5095173;28;20461;-69
2021/06/11 08:41:59;;;;;;;6.78;2.78;;;;;;;26.31;36.39;101416.50;5094330;28;20020;-68
2021/06/11 08:44:28;;;;;;;4.95;2.53;;;;;;;26.67;36.42;101411.94;5093390;28;20020;-69
2021/06/11 08:46:54;;;;;;;5.80;2.58;;;;;;;26.96;35.73;101418.81;5094254;28;20024;-68
2021/06/11 08:49:23;;;;;;;9.95;2.60;;;;;;;26.78;35.22;101415.38;5094179;28;20393;-68
2021/06/11 08:51:49;;;;;;;5.35;3.10;;;;;;;27.08;34.93;101418.75;5094395;28;20096;-71
2021/06/11 08:54:15;;;;;;;6.28;2.65;;;;;;;27.22;35.08;101415.13;5090787;28;20070;-70
2021/06/11 08:56:40;;;;;;;4.40;3.00;;;;;;;26.93;34.69;101424.13;5090955;28;20115;-71
2021/06/11 08:59:06;;;;;;;6.63;3.22;;;;;;;27.00;35.18;101424.97;5092237;28;20044;-71
2021/06/11 09:01:32;;;;;;;6.90;3.28;;;;;;;27.31;35.12;101425.63;5092737;28;20020;-71
2021/06/11 09:03:59;;;;;;;3.83;2.65;;;;;;;27.64;34.70;101413.00;5089773;28;20028;-71
2021/06/11 09:06:25;;;;;;;7.68;3.83;;;;;;;27.93;34.08;101419.75;5093935;28;20020;-71
2021/06/11 09:08:52;;;;;;;5.90;2.90;;;;;;;28.07;34.26;101418.72;5091188;28;20103;-71
2021/06/11 09:11:19;;;;;;;4.60;2.28;;;;;;;27.40;33.34;101414.97;5088526;28;20377;-71
2021/06/11 09:13:51;;;;;;;4.00;2.38;;;;;;;27.67;33.73;101428.84;5090080;28;20028;-71
2021/06/11 09:16:19;;;;;;;6.60;2.67;;;;;;;27.96;32.88;101414.44;5090057;28;20073;-71
2021/06/11 09:18:58;;;;;;;11.50;3.40;;;;;;;27.88;33.28;101420.72;5089802;28;20027;-71
2021/06/11 09:21:44;;;;;;;4.03;2.67;;;;;;;27.88;32.89;101411.00;5092509;28;20039;-71
2021/06/11 09:27:11;;;;;;;4.07;1.88;;;;;;;29.42;30.90;101417.78;5090950;28;20050;-71
2021/06/11 09:29:41;;;;;;;5.40;1.77;;;;;;;30.97;28.11;101408.47;5091735;28;20469;-71
2021/06/11 09:32:15;;;;;;;5.72;2.03;;;;;;;33.63;24.56;101414.09;5092114;28;20111;-71
2021/06/11 09:34:42;;;;;;;5.22;2.15;;;;;;;36.05;21.03;101415.13;5071743;28;20028;-71
2021/06/11 09:37:10;;;;;;;6.20;2.00;;;;;;;37.73;18.61;101417.66;5093233;28;20032;-71
2021/06/11 09:39:51;;;;;;;7.82;1.92;;;;;;;38.79;17.93;101406.50;5092470;28;20535;-69
2021/06/11 09:42:22;;;;;;;5.90;2.08;;;;;;;39.87;16.58;101410.81;5091770;28;20037;-69
2021/06/11 09:44:56;;;;;;;3.72;2.28;;;;;;;39.40;16.88;101409.19;5084788;28;20024;-69
2021/06/11 09:47:37;;;;;;;6.20;2.03;;;;;;;40.37;16.74;101406.81;5082495;28;20020;-69
2021/06/11 09:50:26;;;;;;;4.45;2.13;;;;;;;40.73;15.46;101403.50;5078737;28;20028;-69
2021/06/11 09:53:03;;;;;;;3.70;1.63;;;;;;;41.12;15.48;101403.59;5079043;28;20024;-70
2021/06/11 09:55:32;;;;;;;5.18;1.95;;;;;;;41.07;14.61;101396.78;5079450;28;20028;-69
2021/06/11 09:58:06;;;;;;;3.03;1.58;;;;;;;41.38;14.83;101397.38;5087478;28;20489;-70
2021/06/11 10:00:37;;;;;;;3.70;1.95;;;;;;;41.36;14.81;101393.94;5088805;28;20617;-70
2021/06/11 10:03:17;;;;;;;2.67;1.70;;;;;;;41.18;14.73;101386.13;5077518;28;20032;-69
2021/06/11 10:05:44;;;;;;;3.88;1.60;;;;;;;41.23;14.60;101392.09;5082981;28;20028;-70
2021/06/11 10:08:11;;;;;;;5.10;2.17;;;;;;;41.75;14.38;101394.78;5081579;28;20036;-70
2021/06/11 10:10:38;;;;;;;3.67;1.90;;;;;;;41.47;14.51;101391.31;5082257;28;20569;-70
2021/06/11 10:13:04;;;;;;;4.65;1.40;;;;;;;42.11;14.66;101398.53;5080028;28;20115;-70
2021/06/11 10:15:31;;;;;;;3.35;1.30;;;;;;;42.42;14.08;101393.56;5073640;28;20096;-69
2021/06/11 10:17:57;;;;;;;2.95;1.70;;;;;;;42.47;13.91;101391.38;5072061;28;20041;-69
2021/06/11 10:20:23;;;;;;;4.70;1.80;;;;;;;42.32;13.91;101387.09;5071812;28;20028;-70
2021/06/11 10:22:50;;;;;;;5.82;2.08;;;;;;;41.58;14.20;101387.91;5071366;28;20019;-70
2021/06/11 10:25:15;;;;;;;4.60;2.00;;;;;;;42.09;14.19;101386.97;5073413;28;20051;-69
2021/06/11 10:27:41;;;;;;;6.70;1.73;;;;;;;41.89;15.04;101389.28;5073620;28;20144;-69
2021/06/11 10:30:09;;;;;;;5.07;2.40;;;;;;;42.14;14.56;101390.19;5079319;28;20152;-69
2021/06/11 10:32:40;;;;;;;5.63;2.55;;;;;;;41.19;14.94;101374.34;5089654;28;20055;-70
2021/06/11 10:35:07;;;;;;;4.63;2.78;;;;;;;40.98;14.78;101374.84;5089562;28;20024;-69
2021/06/11 10:37:35;;;;;;;4.82;2.67;;;;;;;41.36;14.53;101383.13;5089526;28;20051;-69
2021/06/11 10:40:15;;;;;;;3.85;3.00;;;;;;;41.31;14.97;101370.78;5089283;28;20418;-69
2021/06/11 10:42:41;;;;;;;3.67;2.50;;;;;;;41.84;14.65;101377.03;5089433;28;20119;-69
2021/06/11 10:45:08;;;;;;;4.63;2.78;;;;;;;42.17;14.37;101373.72;5089342;28;20431;-69
2021/06/11 10:47:34;;;;;;;5.82;2.60;;;;;;;42.01;14.11;101379.41;5089233;28;20037;-69
2021/06/11 10:50:05;;;;;;;3.28;2.20;;;;;;;41.67;14.96;101378.25;5086043;28;20047;-69
2021/06/11 10:52:53;;;;;;;4.43;2.30;;;;;;;40.70;15.24;101381.25;5052136;28;20050;-69
2021/06/11 10:55:18;;;;;;;5.95;2.65;;;;;;;40.27;16.46;101374.16;5074384;28;20086;-69
2021/06/11 10:57:53;;;;;;;5.20;2.22;;;;;;;40.91;15.29;101368.16;5087940;28;20023;-69
2021/06/11 11:00:44;;;;;;;5.18;2.15;;;;;;;41.00;15.26;101366.63;5084401;28;20520;-71
2021/06/11 11:03:31;;;;;;;4.15;2.40;;;;;;;39.43;16.52;101366.78;5077948;28;20023;-71
2021/06/11 11:05:57;;;;;;;5.10;2.53;;;;;;;40.67;16.71;101371.50;5087639;28;20031;-69
2021/06/11 11:08:49;;;;;;;10.35;6.43;;;;;;;39.19;16.55;101366.44;5080894;28;20024;-70
2021/06/11 11:11:32;;;;;;;9.05;5.07;;;;;;;36.18;19.82;101355.56;5084820;28;20422;-70
2021/06/11 11:13:58;;;;;;;9.20;4.35;;;;;;;35.36;22.32;101365.44;5084280;28;20028;-69
2021/06/11 11:16:28;;;;;;;7.55;3.05;;;;;;;35.55;21.77;101367.38;5087562;28;20104;-70
2021/06/11 11:18:54;;;;;;;4.05;2.63;;;;;;;35.55;21.79;101367.38;5086903;28;20024;-70
2021/06/11 11:21:22;;;;;;;4.30;2.65;;;;;;;35.04;22.07;101346.31;5087440;28;20629;-70
2021/06/11 11:23:57;;;;;;;4.47;2.17;;;;;;;34.37;23.72;101351.66;5086841;28;20039;-69
2021/06/11 11:26:48;;;;;;;3.25;1.88;;;;;;;33.21;24.90;101349.63;5084715;28;20050;-70